createdAt,value
2019-03-29T00:02:27.202Z,11.90
2019-03-29T00:05:07.304Z,10.83
2019-03-29T00:07:47.308Z,11.03
2019-03-29T00:10:27.425Z,9.63
2019-03-29T00:13:07.429Z,10.20
2019-03-29T00:15:47.519Z,7.83
2019-03-29T00:21:09.625Z,7.93
2019-03-29T00:23:49.529Z,6.40
2019-03-29T00:26:29.592Z,6.47
2019-03-29T00:29:09.566Z,6.53
2019-03-29T00:31:49.746Z,7.40
2019-03-29T00:34:29.905Z,7.13
2019-03-29T00:37:09.680Z,6.30
2019-03-29T00:39:49.659Z,5.80
2019-03-29T00:42:29.823Z,6.30
2019-03-29T00:45:09.707Z,6.83
2019-03-29T00:47:49.739Z,8.13
2019-03-29T00:50:17.916Z,6.67
2019-03-29T00:52:58.017Z,7.37
2019-03-29T00:55:37.698Z,6.27
2019-03-29T00:58:17.742Z,6.73
2019-03-29T01:00:58.000Z,7.07
2019-03-29T01:03:38.025Z,7.80
2019-03-29T01:06:18.045Z,10.23
2019-03-29T01:08:59.621Z,7.00
2019-03-29T01:14:21.737Z,9.73
2019-03-29T01:17:01.806Z,9.40
2019-03-29T01:19:41.830Z,10.97
2019-03-29T01:22:22.126Z,10.47
2019-03-29T01:25:02.751Z,10.30
2019-03-29T01:27:42.395Z,10.40
2019-03-29T01:30:23.045Z,8.67
2019-03-29T01:33:03.640Z,10.63
2019-03-29T01:35:44.149Z,10.10
2019-03-29T01:38:24.593Z,7.83
2019-03-29T01:41:05.105Z,8.57
2019-03-29T01:43:45.259Z,10.43
2019-03-29T01:46:25.629Z,10.27
2019-03-29T01:49:07.526Z,8.97
2019-03-29T01:51:47.987Z,9.33
2019-03-29T01:56:58.959Z,10.03
2019-03-29T01:59:46.294Z,10.67
2019-03-29T02:02:33.611Z,9.07
2019-03-29T02:05:13.510Z,10.27
2019-03-29T02:07:53.586Z,9.37
2019-03-29T02:10:33.730Z,9.70
2019-03-29T02:13:14.028Z,7.90
2019-03-29T02:15:54.098Z,10.77
2019-03-29T02:18:34.275Z,9.17
2019-03-29T02:21:15.033Z,9.30
2019-03-29T02:23:56.938Z,8.00
2019-03-29T02:26:37.514Z,8.73
2019-03-29T02:29:17.633Z,8.90
2019-03-29T02:31:57.615Z,8.10
2019-03-29T02:34:37.550Z,7.67
2019-03-29T02:37:17.425Z,8.53
2019-03-29T02:39:58.003Z,8.10
2019-03-29T02:42:37.730Z,8.13
2019-03-29T02:45:17.947Z,8.10
2019-03-29T02:47:57.942Z,7.97
2019-03-29T02:50:38.131Z,10.73
2019-03-29T02:53:18.535Z,11.03
2019-03-29T02:55:58.352Z,10.73
2019-03-29T02:58:38.454Z,10.70
2019-03-29T03:01:18.494Z,10.47
2019-03-29T03:03:58.523Z,17.47
2019-03-29T03:06:38.648Z,8.90
2019-03-29T03:09:18.605Z,8.27
2019-03-29T03:11:59.171Z,7.70
2019-03-29T03:14:38.868Z,7.10
2019-03-29T03:17:18.790Z,7.53
2019-03-29T03:19:58.786Z,6.87
2019-03-29T03:22:38.879Z,5.00
2019-03-29T03:25:19.191Z,4.53
2019-03-29T03:27:59.242Z,5.20
2019-03-29T03:30:39.091Z,6.07
2019-03-29T03:33:19.466Z,5.63
2019-03-29T03:35:47.590Z,6.13
2019-03-29T03:38:34.899Z,6.10
2019-03-29T03:41:15.114Z,5.40
2019-03-29T03:43:55.478Z,7.07
2019-03-29T03:46:35.567Z,7.90
2019-03-29T03:49:15.671Z,9.27
2019-03-29T03:51:56.186Z,7.50
2019-03-29T03:54:36.184Z,8.73
2019-03-29T03:57:16.088Z,9.97
2019-03-29T03:59:56.092Z,12.17
2019-03-29T04:02:36.457Z,14.13
2019-03-29T04:05:16.538Z,8.73
2019-03-29T04:07:56.658Z,11.73
2019-03-29T04:10:24.825Z,11.90
2019-03-29T04:16:05.439Z,12.00
2019-03-29T04:18:45.619Z,10.87
2019-03-29T04:21:26.414Z,11.50
2019-03-29T04:24:06.342Z,11.83
2019-03-29T04:26:46.358Z,12.83
2019-03-29T04:29:26.765Z,11.50
2019-03-29T04:32:06.834Z,10.67
2019-03-29T04:34:49.309Z,12.00
2019-03-29T04:37:29.078Z,9.23
2019-03-29T04:40:09.513Z,11.57
2019-03-29T04:42:49.727Z,10.80
2019-03-29T04:45:29.462Z,10.57
2019-03-29T04:48:09.506Z,10.53
2019-03-29T04:50:49.669Z,10.60
2019-03-29T04:53:30.061Z,11.90
2019-03-29T04:56:09.886Z,9.50
2019-03-29T04:58:50.035Z,11.60
2019-03-29T05:01:29.910Z,10.40
2019-03-29T05:04:10.226Z,9.87
2019-03-29T05:06:50.332Z,11.73
2019-03-29T05:09:30.182Z,8.87
2019-03-29T05:12:10.170Z,10.87
2019-03-29T05:14:50.502Z,12.20
2019-03-29T05:17:30.546Z,11.13
2019-03-29T05:20:10.729Z,11.90
2019-03-29T05:22:50.757Z,10.37
2019-03-29T05:25:30.814Z,9.13
2019-03-29T05:28:11.050Z,6.57
2019-03-29T05:30:52.755Z,11.77
2019-03-29T05:33:32.849Z,8.73
2019-03-29T05:36:14.328Z,7.70
2019-03-29T05:38:54.769Z,7.07
2019-03-29T05:41:35.057Z,5.13
2019-03-29T05:44:14.967Z,5.07
2019-03-29T05:46:55.227Z,4.93
2019-03-29T05:49:23.500Z,5.17
2019-03-29T05:52:10.805Z,5.93
2019-03-29T05:54:50.828Z,9.13
2019-03-29T05:57:30.927Z,5.93
2019-03-29T06:00:14.083Z,6.97
2019-03-29T06:08:51.734Z,5.93
2019-03-29T06:11:31.794Z,7.33
2019-03-29T06:14:12.933Z,6.33
2019-03-29T06:16:53.344Z,9.60
2019-03-29T06:19:21.583Z,10.10
2019-03-29T06:22:08.883Z,5.33
2019-03-29T06:24:48.741Z,5.30
2019-03-29T06:27:28.946Z,8.07
2019-03-29T06:30:09.205Z,7.17
2019-03-29T06:32:49.614Z,6.87
2019-03-29T06:35:29.657Z,6.50
2019-03-29T06:38:09.761Z,6.00
2019-03-29T06:43:48.394Z,8.40
2019-03-29T06:46:28.528Z,9.33
2019-03-29T06:49:09.183Z,6.30
2019-03-29T06:51:48.940Z,7.27
2019-03-29T06:54:28.761Z,9.50
2019-03-29T06:57:08.799Z,8.83
2019-03-29T06:59:49.213Z,9.53
2019-03-29T07:02:29.213Z,9.50
2019-03-29T07:05:11.461Z,9.43
2019-03-29T07:07:51.401Z,10.23
2019-03-29T07:10:31.473Z,11.27
2019-03-29T07:13:11.444Z,8.10
2019-03-29T07:15:51.602Z,8.43
2019-03-29T07:18:33.810Z,8.13
2019-03-29T07:21:21.376Z,8.37
2019-03-29T07:23:56.141Z,7.13
2019-03-29T07:26:36.178Z,9.10
2019-03-29T07:29:16.332Z,7.13
2019-03-29T07:31:57.025Z,8.73
2019-03-29T07:34:37.735Z,7.37
2019-03-29T07:37:18.109Z,8.10
2019-03-29T07:39:58.168Z,8.27
2019-03-29T07:42:38.351Z,8.73
2019-03-29T07:45:18.531Z,8.87
2019-03-29T07:47:58.341Z,9.97
2019-03-29T07:50:38.528Z,9.07
2019-03-29T07:53:18.569Z,9.33
2019-03-29T07:55:47.211Z,9.67
2019-03-29T07:58:34.478Z,9.17
2019-03-29T08:01:14.389Z,9.20
2019-03-29T08:03:54.452Z,9.43
2019-03-29T08:06:34.589Z,8.63
2019-03-29T08:09:22.178Z,9.30
2019-03-29T08:11:57.016Z,9.40
2019-03-29T08:14:37.112Z,10.50
2019-03-29T08:17:17.322Z,8.73
2019-03-29T08:20:35.950Z,8.50
2019-03-29T08:22:39.500Z,8.13
2019-03-29T08:25:19.723Z,8.63
2019-03-29T08:27:59.749Z,8.93
2019-03-29T08:30:39.935Z,8.37
2019-03-29T08:33:20.020Z,9.50
2019-03-29T08:36:00.063Z,7.87
2019-03-29T08:38:40.110Z,7.93
2019-03-29T08:41:20.674Z,7.27
2019-03-29T08:44:00.740Z,7.73
2019-03-29T08:46:40.909Z,6.13
2019-03-29T08:49:21.588Z,6.07
2019-03-29T08:52:01.497Z,6.13
2019-03-29T08:54:42.617Z,5.67
2019-03-29T08:57:22.318Z,5.97
2019-03-29T09:03:01.558Z,7.17
2019-03-29T09:05:41.810Z,5.90
2019-03-29T09:08:21.803Z,6.00
2019-03-29T09:11:01.771Z,5.80
2019-03-29T09:13:30.003Z,6.77
2019-03-29T09:15:58.139Z,6.60
2019-03-29T09:18:45.454Z,5.63
2019-03-29T09:21:32.752Z,6.73
2019-03-29T09:24:21.823Z,7.95
2019-03-29T09:26:54.551Z,8.10
2019-03-29T09:29:24.446Z,10.03
2019-03-29T09:35:05.493Z,8.00
2019-03-29T09:37:45.712Z,8.90
2019-03-29T09:40:25.956Z,7.83
2019-03-29T09:43:08.033Z,9.13
2019-03-29T09:45:48.041Z,8.75
2019-03-29T09:48:28.243Z,9.17
2019-03-29T09:50:56.489Z,7.58
2019-03-29T09:53:43.782Z,7.03
2019-03-29T09:56:37.493Z,7.83
2019-03-29T09:59:05.586Z,7.40
2019-03-29T10:01:45.722Z,8.73
2019-03-29T10:04:25.674Z,8.23
2019-03-29T10:07:05.901Z,7.97
2019-03-29T10:09:46.021Z,8.17
2019-03-29T10:12:27.296Z,8.93
2019-03-29T10:15:07.721Z,9.07
2019-03-29T10:17:47.460Z,8.60
2019-03-29T10:20:27.357Z,9.93
2019-03-29T10:23:07.393Z,9.45
2019-03-29T10:25:47.594Z,9.40
2019-03-29T10:28:28.003Z,9.30
2019-03-29T10:31:08.710Z,8.57
2019-03-29T10:33:49.305Z,9.25
2019-03-29T10:36:29.861Z,8.15
2019-03-29T10:39:09.930Z,8.33
2019-03-29T10:41:50.125Z,10.90
2019-03-29T10:44:30.187Z,10.32
2019-03-29T10:47:10.529Z,8.80
2019-03-29T10:49:50.741Z,8.95
2019-03-29T10:52:31.941Z,8.45
2019-03-29T10:58:24.882Z,8.43
2019-03-29T11:01:05.158Z,8.70
2019-03-29T11:03:45.483Z,8.13
2019-03-29T11:06:25.609Z,8.80
2019-03-29T11:09:05.822Z,8.60
2019-03-29T11:11:45.751Z,8.55
2019-03-29T11:14:26.298Z,9.05
2019-03-29T11:16:54.491Z,8.95
2019-03-29T11:19:41.892Z,9.48
2019-03-29T11:22:29.517Z,8.23
2019-03-29T11:25:13.092Z,8.33
2019-03-29T11:27:53.269Z,9.15
2019-03-29T11:30:42.011Z,8.88
2019-03-29T11:33:14.963Z,8.83
2019-03-29T11:35:55.138Z,8.55
2019-03-29T11:38:35.270Z,7.95
2019-03-29T11:41:15.455Z,8.05
2019-03-29T11:43:55.561Z,8.88
2019-03-29T11:46:35.739Z,8.45
2019-03-29T11:49:16.005Z,7.90
2019-03-29T11:51:56.223Z,8.38
2019-03-29T11:54:36.513Z,7.75
2019-03-29T11:57:16.585Z,8.75
2019-03-29T11:59:56.870Z,7.30
2019-03-29T12:02:36.966Z,7.42
2019-03-29T12:05:16.958Z,6.85
2019-03-29T12:07:57.402Z,7.00
2019-03-29T12:10:37.682Z,7.92
2019-03-29T12:13:17.326Z,7.47
2019-03-29T12:15:57.373Z,8.03
2019-03-29T12:18:37.621Z,7.78
2019-03-29T12:21:17.644Z,7.87
2019-03-29T12:23:57.585Z,7.45
2019-03-29T12:26:37.549Z,6.97
2019-03-29T12:29:17.926Z,7.17
2019-03-29T12:31:57.902Z,6.90
2019-03-29T12:34:38.526Z,6.67
2019-03-29T12:37:18.216Z,6.87
2019-03-29T12:39:58.416Z,8.05
2019-03-29T12:42:38.413Z,7.28
2019-03-29T12:45:18.710Z,7.20
2019-03-29T12:47:58.729Z,6.83
2019-03-29T12:50:26.997Z,6.20
2019-03-29T12:53:14.929Z,6.35
2019-03-29T12:56:02.230Z,6.50
2019-03-29T12:58:42.657Z,6.40
2019-03-29T13:01:22.396Z,6.30
2019-03-29T13:04:02.634Z,6.25
2019-03-29T13:06:42.594Z,5.83
2019-03-29T13:09:22.860Z,6.90
2019-03-29T13:12:02.837Z,5.12
2019-03-29T13:14:42.946Z,5.70
2019-03-29T13:17:23.302Z,7.33
2019-03-29T13:20:06.344Z,6.25
2019-03-29T13:22:46.398Z,7.08
2019-03-29T13:25:26.810Z,7.70
2019-03-29T13:28:06.700Z,8.88
2019-03-29T13:30:47.295Z,9.18
2019-03-29T13:33:26.994Z,9.43
2019-03-29T13:36:06.966Z,9.03
2019-03-29T13:38:49.903Z,8.88
2019-03-29T13:41:30.234Z,9.10
2019-03-29T13:44:23.145Z,9.78
2019-03-29T13:46:52.505Z,10.98
2019-03-29T13:49:32.629Z,8.85
2019-03-29T13:52:14.324Z,8.20
2019-03-29T13:54:55.070Z,9.03
2019-03-29T13:57:34.625Z,8.23
2019-03-29T14:00:14.691Z,8.45
2019-03-29T14:02:55.659Z,8.33
2019-03-29T14:05:35.807Z,7.70
2019-03-29T14:08:16.066Z,7.78
2019-03-29T14:10:56.078Z,8.30
2019-03-29T14:13:36.286Z,11.28
2019-03-29T14:16:16.391Z,7.62
2019-03-29T14:18:56.466Z,6.62
2019-03-29T14:21:36.226Z,5.97
2019-03-29T14:24:16.154Z,6.42
2019-03-29T14:26:56.253Z,6.05
2019-03-29T14:29:36.605Z,5.83
2019-03-29T14:32:16.694Z,6.47
2019-03-29T14:34:56.939Z,6.35
2019-03-29T14:37:27.755Z,5.53
2019-03-29T14:40:15.067Z,7.42
2019-03-29T14:42:55.985Z,5.78
2019-03-29T14:45:36.318Z,10.28
2019-03-29T14:48:17.486Z,6.25
2019-03-29T14:50:58.737Z,5.97
2019-03-29T14:53:38.476Z,4.95
2019-03-29T14:56:18.496Z,4.97
2019-03-29T14:58:58.858Z,7.10
2019-03-29T15:01:40.877Z,5.95
2019-03-29T15:04:09.085Z,5.50
2019-03-29T15:06:56.538Z,5.00
2019-03-29T15:09:36.209Z,5.50
2019-03-29T15:12:16.357Z,5.97
2019-03-29T15:15:05.865Z,7.58
2019-03-29T15:17:38.655Z,5.50
2019-03-29T15:20:18.799Z,6.12
2019-03-29T15:22:58.690Z,5.47
2019-03-29T15:25:40.646Z,5.30
2019-03-29T15:28:20.726Z,6.53
2019-03-29T15:31:00.745Z,5.30
2019-03-29T15:33:40.663Z,5.78
2019-03-29T15:36:20.931Z,6.62
2019-03-29T15:39:00.763Z,6.92
2019-03-29T15:41:40.780Z,6.75
2019-03-29T15:44:11.530Z,8.93
2019-03-29T15:46:58.862Z,6.95
2019-03-29T15:49:55.729Z,7.67
2019-03-29T15:52:16.129Z,8.30
2019-03-29T15:55:04.071Z,7.20
2019-03-29T15:57:51.415Z,7.73
2019-03-29T16:00:31.466Z,8.73
2019-03-29T16:03:11.814Z,10.37
2019-03-29T16:05:52.029Z,8.70
2019-03-29T16:08:32.194Z,10.67
2019-03-29T16:11:17.089Z,11.47
2019-03-29T16:13:55.086Z,8.17
2019-03-29T16:16:36.176Z,14.80
2019-03-29T16:19:16.693Z,12.17
2019-03-29T16:21:56.471Z,13.60
2019-03-29T16:24:36.450Z,13.37
2019-03-29T16:27:16.534Z,12.43
2019-03-29T16:29:56.637Z,9.77
2019-03-29T16:32:36.889Z,10.77
2019-03-29T16:35:17.010Z,11.33
2019-03-29T16:37:57.821Z,13.17
2019-03-29T16:40:38.238Z,10.90
2019-03-29T16:43:18.519Z,11.53
2019-03-29T16:45:58.644Z,11.60
2019-03-29T16:48:38.687Z,10.93
2019-03-29T16:51:18.797Z,11.67
2019-03-29T16:54:00.548Z,11.83
2019-03-29T16:56:40.278Z,11.87
2019-03-29T16:59:10.599Z,10.40
2019-03-29T17:01:58.289Z,9.47
2019-03-29T17:04:37.913Z,8.80
2019-03-29T17:07:18.054Z,11.13
2019-03-29T17:09:58.290Z,9.37
2019-03-29T17:12:38.022Z,8.27
2019-03-29T17:15:18.062Z,8.93
2019-03-29T17:18:00.805Z,8.43
2019-03-29T17:20:40.529Z,7.67
2019-03-29T17:23:20.994Z,9.93
2019-03-29T17:26:00.638Z,10.17
2019-03-29T17:28:28.833Z,10.53
2019-03-29T17:31:16.449Z,8.27
2019-03-29T17:33:58.673Z,7.57
2019-03-29T17:36:38.925Z,8.57
2019-03-29T17:39:21.993Z,7.80
2019-03-29T17:42:01.147Z,9.33
2019-03-29T17:44:41.300Z,7.97
2019-03-29T17:47:21.336Z,8.87
2019-03-29T17:50:01.902Z,7.80
2019-03-29T17:52:30.148Z,8.13
2019-03-29T17:55:19.938Z,7.47
2019-03-29T17:58:07.248Z,8.77
2019-03-29T18:00:47.168Z,13.00
2019-03-29T18:03:27.363Z,12.27
2019-03-29T18:06:07.539Z,12.53
2019-03-29T18:08:47.472Z,12.00
2019-03-29T18:11:27.453Z,12.17
2019-03-29T18:14:10.290Z,11.50
2019-03-29T18:16:51.647Z,11.13
2019-03-29T18:19:33.579Z,8.67
2019-03-29T18:25:12.169Z,8.33
2019-03-29T18:27:52.242Z,9.30
2019-03-29T18:30:32.582Z,9.00
2019-03-29T18:33:13.484Z,7.43
2019-03-29T18:35:53.682Z,8.53
2019-03-29T18:38:33.782Z,8.10
2019-03-29T18:41:14.058Z,8.97
2019-03-29T18:43:53.740Z,8.17
2019-03-29T18:46:44.031Z,8.13
2019-03-29T18:49:15.721Z,10.47
2019-03-29T18:51:56.058Z,10.00
2019-03-29T18:54:36.088Z,12.80
2019-03-29T18:57:16.485Z,21.30
2019-03-29T18:59:56.745Z,24.00
2019-03-29T19:02:36.881Z,21.57
2019-03-29T19:05:17.182Z,19.67
2019-03-29T19:07:57.524Z,20.23
2019-03-29T19:10:42.638Z,17.67
2019-03-29T19:13:22.753Z,13.50
2019-03-29T19:16:04.506Z,10.30
2019-03-29T19:18:45.999Z,10.50
2019-03-29T19:21:26.998Z,10.97
2019-03-29T19:24:08.983Z,11.60
2019-03-29T19:26:52.010Z,12.27
2019-03-29T19:29:33.893Z,9.43
2019-03-29T19:32:14.912Z,9.67
2019-03-29T19:34:55.334Z,10.23
2019-03-29T19:37:37.770Z,9.10
2019-03-29T19:40:17.521Z,8.77
2019-03-29T19:42:57.706Z,8.33
2019-03-29T19:45:37.877Z,9.57
2019-03-29T19:48:18.270Z,8.63
2019-03-29T19:51:10.413Z,10.13
2019-03-29T19:53:50.719Z,9.13
2019-03-29T19:56:31.024Z,9.73
2019-03-29T19:59:11.064Z,8.93
2019-03-29T20:01:52.746Z,9.57
2019-03-29T20:04:33.425Z,9.87
2019-03-29T20:07:13.589Z,13.10
2019-03-29T20:12:54.787Z,11.27
2019-03-29T20:15:34.646Z,9.53
2019-03-29T20:18:14.561Z,9.77
2019-03-29T20:20:54.766Z,7.37
2019-03-29T20:23:34.910Z,7.80
2019-03-29T20:26:16.766Z,8.97
2019-03-29T20:28:58.748Z,8.40
2019-03-29T20:31:39.088Z,7.73
2019-03-29T20:34:21.398Z,8.93
2019-03-29T20:37:01.299Z,10.80
2019-03-29T20:39:42.172Z,8.40
2019-03-29T20:42:24.930Z,8.80
2019-03-29T20:45:04.461Z,8.20
2019-03-29T20:47:45.147Z,8.77
2019-03-29T20:50:24.791Z,8.43
2019-03-29T20:53:04.799Z,10.40
2019-03-29T20:55:44.866Z,8.27
2019-03-29T20:58:24.970Z,8.30
2019-03-29T21:01:04.917Z,7.07
2019-03-29T21:03:44.885Z,8.30
2019-03-29T21:06:24.951Z,8.27
2019-03-29T21:09:04.829Z,7.47
2019-03-29T21:11:44.978Z,8.23
2019-03-29T21:14:25.000Z,8.77
2019-03-29T21:17:05.309Z,9.90
2019-03-29T21:20:01.739Z,7.50
2019-03-29T21:22:41.515Z,8.53
2019-03-29T21:25:21.638Z,8.23
2019-03-29T21:28:01.702Z,6.63
2019-03-29T21:30:30.045Z,7.60
2019-03-29T21:33:17.359Z,7.37
2019-03-29T21:35:57.540Z,7.80
2019-03-29T21:38:36.145Z,8.17
2019-03-29T21:41:16.524Z,9.00
2019-03-29T21:43:56.538Z,6.80
2019-03-29T21:46:25.772Z,8.60
2019-03-29T21:49:13.546Z,6.93
2019-03-29T21:51:53.794Z,8.37
2019-03-29T21:54:33.746Z,8.67
2019-03-29T21:57:13.933Z,7.77
2019-03-29T21:59:53.916Z,8.33
2019-03-29T22:02:33.834Z,7.60
2019-03-29T22:05:14.126Z,8.97
2019-03-29T22:07:55.323Z,6.77
2019-03-29T22:10:37.706Z,7.93
2019-03-29T22:13:17.486Z,6.87
2019-03-29T22:15:58.863Z,8.33
2019-03-29T22:18:38.626Z,8.10
2019-03-29T22:21:18.851Z,6.87
2019-03-29T22:23:59.159Z,8.37
2019-03-29T22:26:39.385Z,7.17
2019-03-29T22:29:19.499Z,7.57
2019-03-29T22:31:59.865Z,8.33
2019-03-29T22:34:40.955Z,7.67
2019-03-29T22:37:09.177Z,8.50
2019-03-29T22:39:56.742Z,7.83
2019-03-29T22:42:44.033Z,8.77
2019-03-29T22:45:23.708Z,7.33
2019-03-29T22:48:03.829Z,6.60
2019-03-29T22:50:44.183Z,8.17
2019-03-29T22:53:24.231Z,6.23
2019-03-29T22:56:04.458Z,8.53
2019-03-29T22:58:44.646Z,7.33
2019-03-29T23:01:25.909Z,6.83
2019-03-29T23:04:05.830Z,6.00
2019-03-29T23:06:34.349Z,8.00
2019-03-29T23:09:21.625Z,6.57
2019-03-29T23:12:01.321Z,6.13
2019-03-29T23:14:41.326Z,7.47
2019-03-29T23:17:21.181Z,6.23
2019-03-29T23:20:02.310Z,5.90
2019-03-29T23:22:42.700Z,6.37
2019-03-29T23:25:22.953Z,5.07
2019-03-29T23:28:02.670Z,6.73
2019-03-29T23:30:42.972Z,8.27
2019-03-29T23:33:23.062Z,6.37
2019-03-29T23:36:03.054Z,6.23
2019-03-29T23:38:31.505Z,7.13
2019-03-29T23:41:18.815Z,6.83
2019-03-29T23:44:06.124Z,6.57
2019-03-29T23:46:46.240Z,7.73
2019-03-29T23:49:26.518Z,7.60
2019-03-29T23:52:06.639Z,6.43
2019-03-29T23:54:47.280Z,8.87
2019-03-29T23:57:27.617Z,7.73
